createdAt,value
2023-02-19T00:00:47.009Z,4.18
2023-02-19T00:03:37.898Z,4.28
2023-02-19T00:06:29.677Z,3.95
2023-02-19T00:09:20.617Z,3.90
2023-02-19T00:12:10.997Z,4.30
2023-02-19T00:15:01.208Z,4.40
2023-02-19T00:17:50.922Z,4.40
2023-02-19T00:20:41.257Z,4.13
2023-02-19T00:23:31.569Z,4.72
2023-02-19T00:26:22.238Z,4.07
2023-02-19T00:29:17.769Z,4.30
2023-02-19T00:32:08.649Z,4.13
2023-02-19T00:34:58.868Z,4.57
2023-02-19T00:37:50.432Z,4.68
2023-02-19T00:40:40.616Z,4.50
2023-02-19T00:43:30.488Z,4.25
2023-02-19T00:46:23.865Z,4.63
2023-02-19T00:49:23.004Z,4.57
2023-02-19T00:52:13.320Z,4.97
2023-02-19T00:55:03.553Z,4.65
2023-02-19T00:57:53.745Z,4.63
2023-02-19T01:00:44.051Z,4.70
2023-02-19T01:03:35.591Z,5.10
2023-02-19T01:06:26.576Z,4.80
2023-02-19T01:09:16.815Z,5.05
2023-02-19T01:12:06.977Z,5.00
2023-02-19T01:14:58.067Z,5.03
2023-02-19T01:17:48.345Z,5.30
2023-02-19T01:20:40.627Z,4.85
2023-02-19T01:23:30.885Z,5.07
2023-02-19T01:26:24.205Z,5.20
2023-02-19T01:29:14.831Z,5.25
2023-02-19T01:32:05.225Z,5.13
2023-02-19T01:34:55.539Z,4.90
2023-02-19T01:37:45.761Z,4.90
2023-02-19T01:40:36.147Z,5.28
2023-02-19T01:43:26.557Z,5.13
2023-02-19T01:46:16.896Z,5.50
2023-02-19T01:49:10.124Z,5.18
2023-02-19T01:52:05.674Z,5.15
2023-02-19T01:54:56.826Z,5.05
2023-02-19T01:57:50.234Z,5.43
2023-02-19T02:00:40.217Z,5.00
2023-02-19T02:03:31.740Z,4.95
2023-02-19T02:06:27.978Z,4.90
2023-02-19T02:09:44.613Z,4.78
2023-02-19T02:12:37.737Z,4.75
2023-02-19T02:15:37.919Z,4.25
2023-02-19T02:19:01.648Z,3.97
2023-02-19T02:22:05.885Z,4.20
2023-02-19T02:28:13.964Z,3.63
2023-02-19T02:31:10.464Z,4.15
2023-02-19T02:34:06.763Z,3.63
2023-02-19T02:36:59.436Z,3.33
2023-02-19T02:39:52.404Z,3.17
2023-02-19T02:42:43.641Z,3.53
2023-02-19T02:45:36.560Z,3.75
2023-02-19T02:48:41.721Z,3.90
2023-02-19T02:51:38.438Z,3.65
2023-02-19T02:54:52.380Z,3.70
2023-02-19T02:57:45.522Z,3.75
2023-02-19T03:00:56.533Z,4.10
2023-02-19T03:03:51.601Z,3.47
2023-02-19T03:06:44.172Z,3.45
2023-02-19T03:09:43.122Z,3.50
2023-02-19T03:12:54.629Z,3.40
2023-02-19T03:16:09.704Z,3.60
2023-02-19T03:19:19.060Z,2.67
2023-02-19T03:22:17.545Z,2.25
2023-02-19T03:25:46.900Z,1.55
2023-02-19T03:29:03.729Z,1.70
2023-02-19T03:32:01.980Z,1.42
2023-02-19T03:34:59.438Z,1.50
2023-02-19T03:37:56.938Z,1.50
2023-02-19T03:40:58.209Z,1.17
2023-02-19T03:43:56.525Z,1.20
2023-02-19T03:46:56.078Z,1.15
2023-02-19T03:49:57.805Z,0.80
2023-02-19T03:53:12.778Z,0.85
2023-02-19T03:56:10.673Z,0.90
2023-02-19T03:59:07.678Z,0.85
2023-02-19T04:02:03.751Z,0.75
2023-02-19T04:05:03.229Z,0.90
2023-02-19T04:07:57.337Z,0.90
2023-02-19T04:10:55.255Z,1.23
2023-02-19T04:14:16.400Z,1.30
2023-02-19T04:17:11.535Z,1.05
2023-02-19T04:20:07.493Z,1.02
2023-02-19T04:22:58.602Z,1.10
2023-02-19T04:25:53.475Z,1.02
2023-02-19T04:28:44.201Z,1.42
2023-02-19T04:31:36.501Z,1.23
2023-02-19T04:34:26.550Z,1.30
2023-02-19T04:37:16.546Z,1.40
2023-02-19T04:40:07.385Z,1.33
2023-02-19T04:42:57.567Z,1.35
2023-02-19T04:45:47.397Z,1.60
2023-02-19T04:48:37.569Z,1.35
2023-02-19T04:51:27.815Z,1.30
2023-02-19T04:54:17.964Z,1.33
2023-02-19T04:57:07.832Z,1.23
2023-02-19T04:59:58.263Z,1.50
2023-02-19T05:02:48.124Z,1.27
2023-02-19T05:05:38.056Z,1.17
2023-02-19T05:08:28.077Z,1.13
2023-02-19T05:11:18.042Z,1.10
2023-02-19T05:14:08.009Z,1.10
2023-02-19T05:16:58.275Z,1.10
2023-02-19T05:19:48.281Z,1.02
2023-02-19T05:22:38.497Z,1.25
2023-02-19T05:25:29.038Z,1.10
2023-02-19T05:28:20.065Z,1.05
2023-02-19T05:31:11.587Z,1.10
2023-02-19T05:34:03.195Z,0.90
2023-02-19T05:36:53.510Z,0.90
2023-02-19T05:39:43.941Z,0.60
2023-02-19T05:42:34.236Z,0.70
2023-02-19T05:45:24.118Z,0.88
2023-02-19T05:48:13.830Z,0.82
2023-02-19T05:51:13.448Z,0.60
2023-02-19T05:54:03.987Z,0.77
2023-02-19T05:56:54.177Z,0.70
2023-02-19T05:59:44.050Z,1.00
2023-02-19T06:02:33.866Z,0.90
2023-02-19T06:05:24.401Z,0.80
2023-02-19T06:08:15.814Z,0.95
2023-02-19T06:11:06.248Z,0.80
2023-02-19T06:13:56.610Z,0.70
2023-02-19T06:16:46.589Z,0.60
2023-02-19T06:19:37.051Z,1.02
2023-02-19T06:22:27.552Z,0.88
2023-02-19T06:25:18.373Z,1.13
2023-02-19T06:28:10.419Z,0.90
2023-02-19T06:31:01.018Z,0.95
2023-02-19T06:33:51.293Z,1.10
2023-02-19T06:36:41.188Z,0.95
2023-02-19T06:39:31.326Z,1.50
2023-02-19T06:42:21.527Z,1.27
2023-02-19T06:45:11.612Z,1.10
2023-02-19T06:48:01.616Z,1.20
2023-02-19T06:50:51.790Z,1.15
2023-02-19T06:53:42.210Z,1.63
2023-02-19T06:56:34.985Z,1.40
2023-02-19T06:59:25.598Z,1.48
2023-02-19T07:02:15.836Z,1.85
2023-02-19T07:05:06.203Z,1.55
2023-02-19T07:07:56.094Z,1.80
2023-02-19T07:10:46.672Z,1.50
2023-02-19T07:13:37.182Z,1.80
2023-02-19T07:16:27.804Z,1.90
2023-02-19T07:19:18.162Z,1.60
2023-02-19T07:22:08.362Z,1.58
2023-02-19T07:24:58.534Z,1.77
2023-02-19T07:27:48.847Z,1.70
2023-02-19T07:30:40.822Z,1.60
2023-02-19T07:33:31.585Z,1.40
2023-02-19T07:36:23.535Z,1.88
2023-02-19T07:39:15.570Z,1.98
2023-02-19T07:42:05.918Z,1.77
2023-02-19T07:44:56.006Z,2.10
2023-02-19T07:47:46.159Z,1.90
2023-02-19T07:50:36.446Z,2.28
2023-02-19T07:53:27.751Z,2.00
2023-02-19T07:56:20.808Z,2.30
2023-02-19T07:59:11.726Z,2.27
2023-02-19T08:02:20.594Z,2.17
2023-02-19T08:05:10.756Z,1.88
2023-02-19T08:08:01.123Z,2.13
2023-02-19T08:11:10.399Z,2.00
2023-02-19T08:14:00.689Z,1.98
2023-02-19T08:16:51.811Z,2.22
2023-02-19T08:19:42.149Z,1.67
2023-02-19T08:22:32.437Z,2.00
2023-02-19T08:25:22.877Z,1.60
2023-02-19T08:28:13.444Z,1.70
2023-02-19T08:31:05.939Z,1.85
2023-02-19T08:33:56.352Z,1.70
2023-02-19T08:36:46.852Z,1.38
2023-02-19T08:39:37.220Z,1.45
2023-02-19T08:42:28.961Z,1.30
2023-02-19T08:45:21.110Z,1.40
2023-02-19T08:48:12.196Z,1.63
2023-02-19T08:51:05.104Z,1.42
2023-02-19T08:53:55.210Z,1.42
2023-02-19T08:56:45.718Z,1.50
2023-02-19T08:59:35.622Z,1.70
2023-02-19T09:02:25.833Z,1.40
2023-02-19T09:05:17.132Z,1.50
2023-02-19T09:08:07.195Z,1.92
2023-02-19T09:11:01.934Z,1.50
2023-02-19T09:13:52.409Z,1.33
2023-02-19T09:16:42.494Z,1.60
2023-02-19T09:19:33.564Z,1.80
2023-02-19T09:22:23.808Z,1.67
2023-02-19T09:25:13.763Z,1.60
2023-02-19T09:28:03.865Z,1.80
2023-02-19T09:30:54.492Z,1.77
2023-02-19T09:33:46.900Z,1.92
2023-02-19T09:36:38.317Z,1.75
2023-02-19T09:39:28.158Z,1.50
2023-02-19T09:42:29.831Z,1.67
2023-02-19T09:45:24.104Z,1.63
2023-02-19T09:48:14.530Z,1.50
2023-02-19T09:51:05.373Z,1.55
2023-02-19T09:53:57.489Z,1.70
2023-02-19T09:56:48.006Z,1.77
2023-02-19T09:59:48.646Z,1.80
2023-02-19T10:02:39.106Z,1.70
2023-02-19T10:05:30.109Z,1.50
2023-02-19T10:08:21.368Z,1.70
2023-02-19T10:11:13.274Z,1.40
2023-02-19T10:14:12.221Z,1.70
2023-02-19T10:17:06.116Z,1.33
2023-02-19T10:19:57.991Z,1.65
2023-02-19T10:22:49.410Z,1.70
2023-02-19T10:25:46.552Z,1.65
2023-02-19T10:28:37.801Z,2.38
2023-02-19T10:31:28.142Z,1.55
2023-02-19T10:34:22.199Z,1.77
2023-02-19T10:37:19.056Z,1.35
2023-02-19T10:40:17.721Z,1.42
2023-02-19T10:43:22.799Z,1.58
2023-02-19T10:46:29.225Z,1.42
2023-02-19T10:49:36.018Z,1.50
2023-02-19T10:52:36.179Z,1.55
2023-02-19T10:55:37.700Z,1.25
2023-02-19T10:58:28.508Z,1.40
2023-02-19T11:01:25.638Z,1.60
2023-02-19T11:04:18.132Z,1.70
2023-02-19T11:07:16.770Z,1.55
2023-02-19T11:10:07.300Z,1.55
2023-02-19T11:13:04.762Z,1.48
2023-02-19T11:15:55.731Z,1.52
2023-02-19T11:18:57.013Z,1.77
2023-02-19T11:21:47.917Z,1.70
2023-02-19T11:24:40.451Z,1.90
2023-02-19T11:27:31.963Z,1.77
2023-02-19T11:30:35.572Z,1.75
2023-02-19T11:33:27.660Z,1.55
2023-02-19T11:36:30.399Z,1.63
2023-02-19T11:39:30.685Z,1.48
2023-02-19T11:42:29.034Z,1.70
2023-02-19T11:45:36.692Z,1.50
2023-02-19T11:48:39.571Z,1.42
2023-02-19T11:51:54.642Z,1.48
2023-02-19T11:55:26.788Z,1.85
2023-02-19T11:59:05.416Z,1.80
2023-02-19T12:02:29.532Z,1.60
2023-02-19T12:06:03.298Z,1.50
2023-02-19T12:09:10.401Z,1.60
2023-02-19T12:12:16.924Z,1.58
2023-02-19T12:15:39.765Z,1.60
2023-02-19T12:18:44.909Z,2.05
2023-02-19T12:21:58.856Z,1.65
2023-02-19T12:25:25.644Z,2.15
2023-02-19T12:28:50.814Z,1.70
2023-02-19T12:31:56.169Z,1.75
2023-02-19T12:35:10.604Z,1.23
2023-02-19T12:38:09.058Z,1.90
2023-02-19T12:41:29.239Z,1.50
2023-02-19T12:44:47.579Z,2.60
2023-02-19T12:47:42.176Z,2.10
2023-02-19T12:50:35.845Z,1.35
2023-02-19T12:53:39.966Z,1.45
2023-02-19T12:56:36.889Z,1.50
2023-02-19T12:59:36.526Z,1.67
2023-02-19T13:02:39.137Z,1.52
2023-02-19T13:05:43.002Z,1.60
2023-02-19T13:09:03.482Z,1.85
2023-02-19T13:12:01.768Z,1.83
2023-02-19T13:14:57.966Z,1.88
2023-02-19T13:17:52.298Z,2.38
2023-02-19T13:20:44.761Z,2.70
2023-02-19T13:24:03.084Z,2.13
2023-02-19T13:26:56.174Z,2.08
2023-02-19T13:29:53.396Z,2.28
2023-02-19T13:32:58.833Z,2.03
2023-02-19T13:36:06.131Z,2.10
2023-02-19T13:38:57.595Z,2.35
2023-02-19T13:42:01.497Z,2.47
2023-02-19T13:44:57.711Z,2.22
2023-02-19T13:47:55.153Z,2.10
2023-02-19T13:50:45.129Z,1.60
2023-02-19T13:53:51.787Z,1.85
2023-02-19T13:56:42.194Z,1.98
2023-02-19T13:59:37.988Z,2.45
2023-02-19T14:02:31.616Z,2.72
2023-02-19T14:05:58.245Z,2.40
2023-02-19T14:08:58.122Z,2.72
2023-02-19T14:11:48.881Z,2.63
2023-02-19T14:14:45.854Z,1.70
2023-02-19T14:17:42.434Z,2.30
2023-02-19T14:20:44.943Z,1.50
2023-02-19T14:23:35.100Z,1.58
2023-02-19T14:26:27.054Z,1.70
2023-02-19T14:29:17.492Z,1.90
2023-02-19T14:32:07.375Z,2.35
2023-02-19T14:34:58.153Z,2.38
2023-02-19T14:37:50.899Z,2.08
2023-02-19T14:40:43.064Z,2.00
2023-02-19T14:43:35.136Z,2.20
2023-02-19T14:46:37.269Z,2.00
2023-02-19T14:50:05.722Z,1.80
2023-02-19T14:53:00.423Z,1.90
2023-02-19T14:55:52.282Z,1.40
2023-02-19T14:58:43.021Z,2.17
2023-02-19T15:01:33.519Z,1.70
2023-02-19T15:04:27.063Z,1.95
2023-02-19T15:07:25.137Z,2.10
2023-02-19T15:10:15.942Z,1.90
2023-02-19T15:13:12.071Z,2.28
2023-02-19T15:16:02.518Z,1.80
2023-02-19T15:18:55.288Z,2.00
2023-02-19T15:21:48.448Z,2.20
2023-02-19T15:24:44.276Z,2.45
2023-02-19T15:27:35.169Z,2.40
2023-02-19T15:30:29.468Z,2.42
2023-02-19T15:33:20.722Z,2.00
2023-02-19T15:36:13.477Z,2.00
2023-02-19T15:39:03.775Z,2.65
2023-02-19T15:42:00.588Z,2.20
2023-02-19T15:45:03.908Z,2.45
2023-02-19T15:48:19.778Z,2.13
2023-02-19T15:51:17.932Z,2.60
2023-02-19T15:54:19.665Z,2.60
2023-02-19T15:57:18.312Z,2.38
2023-02-19T16:00:15.575Z,1.92
2023-02-19T16:03:08.226Z,1.90
2023-02-19T16:06:14.026Z,1.70
2023-02-19T16:09:05.791Z,2.10
2023-02-19T16:11:58.989Z,2.10
2023-02-19T16:14:50.962Z,2.20
2023-02-19T16:17:44.961Z,1.83
2023-02-19T16:20:36.072Z,2.00
2023-02-19T16:23:27.331Z,2.33
2023-02-19T16:26:18.123Z,2.30
2023-02-19T16:29:23.646Z,1.80
2023-02-19T16:32:17.046Z,2.67
2023-02-19T16:35:37.185Z,2.30
2023-02-19T16:38:27.275Z,2.35
2023-02-19T16:41:17.168Z,2.50
2023-02-19T16:44:25.734Z,2.53
2023-02-19T16:47:23.723Z,2.28
2023-02-19T16:50:22.031Z,2.67
2023-02-19T16:53:22.269Z,2.50
2023-02-19T16:56:21.211Z,2.55
2023-02-19T16:59:11.450Z,2.10
2023-02-19T17:02:05.177Z,3.40
2023-02-19T17:04:55.787Z,2.55
2023-02-19T17:07:46.566Z,2.95
2023-02-19T17:10:37.090Z,2.55
2023-02-19T17:13:29.469Z,2.25
2023-02-19T17:16:26.311Z,2.95
2023-02-19T17:19:18.915Z,2.63
2023-02-19T17:22:09.401Z,2.70
2023-02-19T17:24:59.633Z,2.90
2023-02-19T17:27:49.714Z,2.63
2023-02-19T17:30:40.520Z,3.00
2023-02-19T17:33:30.645Z,2.80
2023-02-19T17:36:30.773Z,3.20
2023-02-19T17:39:20.969Z,3.20
2023-02-19T17:42:11.077Z,2.92
2023-02-19T17:45:00.989Z,3.55
2023-02-19T17:47:51.083Z,2.95
2023-02-19T17:50:42.124Z,3.60
2023-02-19T17:53:32.027Z,3.05
2023-02-19T17:56:25.429Z,2.95
2023-02-19T17:59:17.431Z,3.30
2023-02-19T18:02:08.544Z,2.88
2023-02-19T18:04:58.860Z,2.85
2023-02-19T18:07:49.587Z,2.88
2023-02-19T18:10:39.955Z,2.92
2023-02-19T18:13:30.326Z,2.90
2023-02-19T18:16:21.977Z,3.33
2023-02-19T18:19:12.040Z,3.45
2023-02-19T18:22:02.464Z,3.13
2023-02-19T18:24:53.458Z,3.38
2023-02-19T18:27:43.715Z,2.72
2023-02-19T18:30:33.950Z,3.35
2023-02-19T18:33:24.396Z,3.05
2023-02-19T18:36:14.456Z,3.35
2023-02-19T18:39:04.337Z,2.75
2023-02-19T18:41:54.325Z,3.42
2023-02-19T18:44:48.132Z,3.03
2023-02-19T18:47:38.296Z,2.92
2023-02-19T18:50:28.341Z,2.95
2023-02-19T18:53:18.185Z,2.80
2023-02-19T18:56:09.133Z,3.20
2023-02-19T18:59:00.437Z,3.03
2023-02-19T19:01:51.419Z,3.33
2023-02-19T19:04:43.168Z,3.60
2023-02-19T19:07:33.206Z,4.00
2023-02-19T19:10:23.775Z,3.35
2023-02-19T19:13:14.128Z,2.97
2023-02-19T19:16:04.509Z,3.40
2023-02-19T19:18:55.487Z,2.95
2023-02-19T19:21:51.939Z,3.40
2023-02-19T19:24:43.519Z,3.22
2023-02-19T19:27:33.476Z,3.35
2023-02-19T19:30:23.590Z,2.97
2023-02-19T19:33:14.186Z,3.17
2023-02-19T19:36:05.793Z,2.65
2023-02-19T19:38:55.885Z,2.60
2023-02-19T19:41:45.677Z,2.90
2023-02-19T19:44:36.047Z,2.85
2023-02-19T19:47:26.667Z,2.75
2023-02-19T19:50:18.332Z,2.88
2023-02-19T19:53:08.047Z,3.55
2023-02-19T19:56:00.093Z,2.55
2023-02-19T19:58:49.875Z,2.70
2023-02-19T20:01:46.942Z,3.47
2023-02-19T20:04:37.309Z,3.28
2023-02-19T20:07:28.381Z,3.00
2023-02-19T20:10:19.960Z,3.15
2023-02-19T20:13:10.430Z,3.67
2023-02-19T20:16:00.734Z,3.40
2023-02-19T20:18:51.064Z,2.65
2023-02-19T20:21:51.502Z,3.17
2023-02-19T20:24:41.407Z,3.40
2023-02-19T20:27:31.317Z,3.28
2023-02-19T20:30:23.475Z,3.17
2023-02-19T20:33:13.957Z,3.38
2023-02-19T20:36:04.100Z,3.85
2023-02-19T20:38:54.704Z,4.53
2023-02-19T20:41:50.312Z,3.60
2023-02-19T20:44:42.850Z,3.20
2023-02-19T20:47:33.112Z,3.30
2023-02-19T20:50:23.451Z,3.63
2023-02-19T20:53:13.787Z,3.85
2023-02-19T20:56:06.056Z,3.60
2023-02-19T20:58:56.489Z,3.25
2023-02-19T21:01:46.842Z,3.53
2023-02-19T21:04:38.278Z,3.70
2023-02-19T21:07:28.576Z,3.60
2023-02-19T21:10:18.866Z,4.00
2023-02-19T21:13:09.184Z,3.35
2023-02-19T21:15:59.207Z,3.55
2023-02-19T21:18:49.651Z,2.97
2023-02-19T21:21:40.423Z,3.85
2023-02-19T21:24:32.711Z,3.75
2023-02-19T21:27:23.198Z,4.15
2023-02-19T21:30:13.730Z,3.50
2023-02-19T21:33:04.381Z,3.38
2023-02-19T21:35:54.470Z,3.35
2023-02-19T21:38:44.588Z,3.40
2023-02-19T21:41:35.042Z,3.58
2023-02-19T21:44:25.090Z,3.40
2023-02-19T21:47:16.008Z,3.67
2023-02-19T21:50:06.672Z,3.92
2023-02-19T21:52:56.527Z,3.47
2023-02-19T21:55:57.894Z,3.97
2023-02-19T21:58:49.134Z,3.83
2023-02-19T22:01:39.539Z,3.47
2023-02-19T22:04:29.713Z,2.83
2023-02-19T22:07:20.827Z,3.60
2023-02-19T22:10:10.711Z,2.80
2023-02-19T22:13:00.784Z,3.05
2023-02-19T22:15:51.110Z,2.83
2023-02-19T22:18:54.137Z,3.25
2023-02-19T22:21:44.804Z,3.13
2023-02-19T22:24:34.607Z,3.30
2023-02-19T22:27:24.913Z,3.10
2023-02-19T22:30:16.063Z,3.90
2023-02-19T22:33:06.445Z,3.38
2023-02-19T22:35:56.690Z,3.15
2023-02-19T22:38:47.522Z,3.50
2023-02-19T22:41:42.088Z,3.05
2023-02-19T22:44:32.153Z,4.43
2023-02-19T22:47:22.114Z,3.28
2023-02-19T22:50:22.344Z,3.10
2023-02-19T22:53:12.066Z,3.50
2023-02-19T22:56:02.264Z,3.30
2023-02-19T22:58:53.601Z,3.42
2023-02-19T23:01:43.657Z,3.40
2023-02-19T23:04:33.858Z,3.58
2023-02-19T23:07:24.349Z,3.63
2023-02-19T23:10:14.618Z,3.70
2023-02-19T23:13:04.827Z,3.72
2023-02-19T23:15:54.668Z,3.88
2023-02-19T23:18:44.603Z,3.58
2023-02-19T23:21:34.627Z,3.78
2023-02-19T23:24:24.945Z,3.70
2023-02-19T23:27:15.046Z,3.63
2023-02-19T23:30:05.951Z,4.18
2023-02-19T23:32:56.065Z,3.92
2023-02-19T23:35:46.327Z,3.20
2023-02-19T23:38:36.619Z,3.83
2023-02-19T23:41:26.834Z,3.45
2023-02-19T23:44:17.631Z,3.72
2023-02-19T23:47:07.453Z,3.78
2023-02-19T23:49:57.296Z,3.65
2023-02-19T23:52:47.469Z,4.07
2023-02-19T23:55:37.654Z,3.70
2023-02-19T23:58:27.587Z,4.65
